Time;durP1;ratioP1;P1;durP2;ratioP2;P2;SDS_P1;SDS_P2;PMS_P1;PMS_P2;Temp;Humidity;BMP_temperature;BMP_pressure;BME280_temperature;BME280_humidity;BME280_pressure;Samples;Min_cycle;Max_cycle;Signal;HPM_P1;HPM_P2
2021/03/04 00:00:18;;;;;;;58.25;40.28;;;5.00;98.30;;;;;;5183293;23;20205;-83
2021/03/04 00:02:20;;;;;;;64.60;40.78;;;5.00;98.30;;;;;;5184318;23;20224;-81
2021/03/04 00:04:22;;;;;;;56.55;39.03;;;5.00;98.30;;;;;;5183981;23;20239;-82
2021/03/04 00:06:26;;;;;;;60.63;38.42;;;5.00;98.30;;;;;;5175849;23;20239;-83
2021/03/04 00:08:29;;;;;;;51.25;36.97;;;5.00;98.30;;;;;;5184183;23;20761;-82
2021/03/04 00:10:32;;;;;;;51.35;37.53;;;4.80;98.30;;;;;;5185011;23;20205;-82
2021/03/04 00:12:34;;;;;;;52.58;35.50;;;4.90;98.30;;;;;;5186582;23;20219;-84
2021/03/04 00:14:36;;;;;;;52.05;34.80;;;4.80;98.30;;;;;;5184398;23;20596;-83
2021/03/04 00:16:38;;;;;;;50.63;36.30;;;4.80;98.30;;;;;;5184463;23;20235;-82
2021/03/04 00:18:40;;;;;;;48.80;34.97;;;4.80;98.30;;;;;;5184250;23;20197;-83
2021/03/04 00:20:42;;;;;;;54.53;34.85;;;4.60;98.30;;;;;;5183525;23;20228;-82
2021/03/04 00:22:45;;;;;;;52.70;35.33;;;4.60;98.30;;;;;;5182221;23;20723;-82
2021/03/04 00:24:47;;;;;;;52.88;36.05;;;4.70;98.30;;;;;;5182549;23;20231;-84
2021/03/04 00:26:50;;;;;;;49.05;35.53;;;4.70;98.30;;;;;;5182072;23;20212;-82
2021/03/04 00:28:53;;;;;;;49.60;35.40;;;4.70;98.30;;;;;;5182464;23;20944;-82
2021/03/04 00:30:55;;;;;;;48.70;34.75;;;4.60;98.30;;;;;;5182617;23;20208;-82
2021/03/04 00:32:58;;;;;;;45.55;30.55;;;4.80;98.30;;;;;;5181308;23;20204;-82
2021/03/04 00:35:00;;;;;;;41.35;31.15;;;4.80;98.30;;;;;;5183599;23;20516;-82
2021/03/04 00:37:03;;;;;;;33.92;24.95;;;4.90;98.30;;;;;;5182353;23;20201;-82
2021/03/04 00:39:07;;;;;;;37.72;25.88;;;4.90;98.30;;;;;;5182542;23;20727;-82
2021/03/04 00:41:09;;;;;;;34.63;24.48;;;5.00;98.30;;;;;;5182328;23;20518;-82
2021/03/04 00:43:13;;;;;;;33.50;24.90;;;5.00;98.30;;;;;;5183101;23;20807;-82
2021/03/04 00:45:17;;;;;;;31.67;23.73;;;4.90;98.30;;;;;;5183630;23;20577;-83
2021/03/04 00:47:38;;;;;;;30.90;22.60;;;4.90;98.30;;;;;;5185056;23;20205;-82
2021/03/04 00:49:43;;;;;;;29.15;22.10;;;4.90;98.30;;;;;;5186172;23;20208;-82
2021/03/04 00:51:45;;;;;;;30.58;21.63;;;4.90;98.30;;;;;;5184292;23;20221;-81
2021/03/04 00:53:47;;;;;;;29.50;19.15;;;4.90;98.30;;;;;;5184960;23;20197;-83
2021/03/04 00:55:49;;;;;;;25.83;18.48;;;4.90;98.30;;;;;;5184699;23;20224;-82
2021/03/04 00:57:51;;;;;;;26.85;17.20;;;4.80;98.30;;;;;;5184520;23;20204;-82
2021/03/04 00:59:54;;;;;;;23.73;16.67;;;4.90;98.30;;;;;;5184319;23;20289;-83
2021/03/04 01:01:56;;;;;;;18.35;13.80;;;4.90;98.30;;;;;;5184187;23;20197;-85
2021/03/04 01:03:58;;;;;;;20.20;14.80;;;4.70;98.30;;;;;;5184273;23;20311;-83
2021/03/04 01:06:00;;;;;;;24.58;13.75;;;4.50;98.30;;;;;;5183726;23;20276;-83
2021/03/04 01:08:03;;;;;;;16.85;13.48;;;4.50;98.30;;;;;;5183645;23;20228;-82
2021/03/04 01:10:10;;;;;;;19.08;13.43;;;4.50;98.30;;;;;;5184782;23;20258;-83
2021/03/04 01:12:12;;;;;;;17.02;14.23;;;4.60;98.30;;;;;;5184540;23;20279;-83
2021/03/04 01:14:14;;;;;;;16.15;11.57;;;4.60;98.30;;;;;;5184119;23;20223;-83
2021/03/04 01:16:17;;;;;;;15.57;11.65;;;4.70;98.30;;;;;;5175519;23;20233;-82
2021/03/04 01:18:19;;;;;;;13.07;10.35;;;4.70;98.30;;;;;;5184530;23;20577;-82
2021/03/04 01:20:22;;;;;;;12.00;9.80;;;4.70;98.30;;;;;;5184107;23;20200;-82
2021/03/04 01:22:24;;;;;;;16.75;10.70;;;4.70;98.30;;;;;;5184674;23;20204;-85
2021/03/04 01:24:26;;;;;;;14.30;10.65;;;4.60;98.30;;;;;;5184268;23;20201;-82
2021/03/04 01:26:28;;;;;;;11.43;9.75;;;4.60;98.30;;;;;;5181789;23;20256;-82
2021/03/04 01:28:30;;;;;;;11.57;9.52;;;4.60;98.30;;;;;;5182293;23;20255;-82
2021/03/04 01:30:34;;;;;;;12.30;9.10;;;4.60;98.30;;;;;;5181884;23;20276;-82
2021/03/04 01:32:50;;;;;;;11.65;9.30;;;4.70;98.30;;;;;;5183166;23;20207;-81
2021/03/04 01:34:52;;;;;;;8.63;7.18;;;4.80;98.30;;;;;;5183467;23;20208;-84
2021/03/04 01:36:55;;;;;;;13.65;9.20;;;4.70;98.30;;;;;;5181658;23;20255;-82
2021/03/04 01:38:57;;;;;;;11.70;8.75;;;4.70;98.30;;;;;;5184281;23;20842;-82
2021/03/04 01:40:59;;;;;;;10.48;8.50;;;4.80;98.30;;;;;;5185561;23;20671;-81
2021/03/04 01:43:01;;;;;;;14.68;9.50;;;4.90;98.30;;;;;;5184351;23;20204;-83
2021/03/04 01:45:04;;;;;;;10.38;8.63;;;4.90;98.30;;;;;;5184348;23;20247;-83
2021/03/04 01:47:07;;;;;;;11.95;8.80;;;4.90;98.30;;;;;;5178440;23;20205;-82
2021/03/04 01:49:15;;;;;;;12.88;8.63;;;4.90;98.30;;;;;;5186517;23;20204;-83
2021/03/04 01:51:17;;;;;;;10.40;7.95;;;4.80;98.30;;;;;;5185505;23;20893;-82
2021/03/04 01:53:19;;;;;;;12.63;8.13;;;4.90;98.30;;;;;;5178327;23;20283;-83
2021/03/04 01:55:22;;;;;;;11.05;8.95;;;4.80;98.30;;;;;;5187403;23;20276;-83
2021/03/04 01:57:25;;;;;;;12.63;9.13;;;4.90;98.30;;;;;;5187143;23;20205;-83
2021/03/04 01:59:28;;;;;;;12.73;9.15;;;4.90;98.30;;;;;;5188120;23;20201;-84
2021/03/04 02:01:30;;;;;;;14.25;9.40;;;4.90;98.30;;;;;;5189627;23;20205;-84
2021/03/04 02:03:33;;;;;;;11.57;8.45;;;4.90;98.30;;;;;;5190229;23;20201;-83
2021/03/04 02:05:36;;;;;;;11.88;9.93;;;4.90;98.30;;;;;;5190159;23;20224;-83
2021/03/04 02:07:44;;;;;;;10.65;8.95;;;4.80;98.30;;;;;;5189067;23;20265;-83
2021/03/04 02:09:54;;;;;;;11.57;8.68;;;4.90;98.30;;;;;;5190331;23;20265;-83
2021/03/04 02:12:02;;;;;;;12.13;8.40;;;4.80;98.30;;;;;;5189203;23;20200;-83
2021/03/04 02:14:10;;;;;;;9.85;8.13;;;4.80;98.30;;;;;;5180923;23;20239;-83
2021/03/04 02:16:22;;;;;;;13.60;7.68;;;4.70;98.30;;;;;;5187900;23;20215;-82
2021/03/04 02:18:43;;;;;;;10.52;7.78;;;4.60;98.30;;;;;;5188309;23;20545;-82
2021/03/04 02:21:04;;;;;;;11.60;7.85;;;4.60;98.30;;;;;;5186875;23;20201;-82
2021/03/04 02:23:18;;;;;;;12.60;7.90;;;4.70;98.30;;;;;;5186407;23;20272;-83
2021/03/04 02:25:24;;;;;;;10.25;8.00;;;4.60;98.30;;;;;;5187313;23;20289;-83
2021/03/04 02:27:29;;;;;;;11.32;8.52;;;4.70;98.30;;;;;;5186833;23;20193;-83
2021/03/04 02:29:36;;;;;;;17.80;8.35;;;4.70;98.30;;;;;;5186900;23;20205;-84
2021/03/04 02:31:40;;;;;;;10.27;8.13;;;4.80;98.30;;;;;;5179596;23;20205;-83
2021/03/04 02:33:45;;;;;;;10.20;8.52;;;4.80;98.30;;;;;;5187233;23;20201;-82
2021/03/04 02:35:48;;;;;;;10.10;8.05;;;4.80;98.30;;;;;;5188945;23;20221;-83
2021/03/04 02:37:55;;;;;;;13.23;8.25;;;4.80;98.30;;;;;;5188780;23;20204;-83
2021/03/04 02:39:58;;;;;;;10.13;8.15;;;4.90;98.30;;;;;;5188534;23;20257;-83
2021/03/04 02:42:01;;;;;;;11.52;8.35;;;4.70;98.30;;;;;;5188602;23;20204;-83
2021/03/04 02:44:07;;;;;;;10.65;8.50;;;4.70;98.30;;;;;;5188032;23;20217;-86
2021/03/04 02:46:10;;;;;;;10.68;8.20;;;4.70;98.30;;;;;;5188686;23;20292;-84
2021/03/04 02:48:15;;;;;;;14.50;9.35;;;4.80;98.30;;;;;;5187789;23;20205;-84
2021/03/04 02:50:18;;;;;;;13.25;8.70;;;4.70;98.30;;;;;;5188142;23;20260;-83
2021/03/04 02:52:21;;;;;;;12.38;8.65;;;4.70;98.30;;;;;;5188921;23;20269;-84
2021/03/04 02:54:23;;;;;;;10.60;7.80;;;4.70;98.30;;;;;;5187108;23;20224;-82
2021/03/04 02:56:26;;;;;;;10.75;8.43;;;4.70;98.30;;;;;;5187640;23;20205;-85
2021/03/04 02:58:29;;;;;;;13.85;9.10;;;4.90;98.30;;;;;;5188129;23;20236;-84
2021/03/04 03:00:33;;;;;;;14.07;8.95;;;4.90;98.30;;;;;;5186998;23;20596;-84
2021/03/04 03:02:37;;;;;;;11.50;8.98;;;5.00;98.30;;;;;;5188510;23;20215;-84
2021/03/04 03:04:42;;;;;;;11.55;8.98;;;5.00;98.30;;;;;;5189144;23;20252;-82
2021/03/04 03:06:45;;;;;;;11.48;8.55;;;4.90;98.30;;;;;;5180282;23;20240;-83
2021/03/04 03:08:49;;;;;;;11.45;7.95;;;4.80;98.30;;;;;;5187854;23;20228;-84
2021/03/04 03:10:52;;;;;;;11.45;8.10;;;4.80;98.30;;;;;;5184235;23;20228;-81
2021/03/04 03:12:57;;;;;;;13.27;9.30;;;4.90;98.30;;;;;;5186336;23;20197;-82
2021/03/04 03:15:00;;;;;;;7.82;6.72;;;4.80;98.30;;;;;;5186305;23;20208;-81
2021/03/04 03:17:03;;;;;;;8.85;7.15;;;4.80;98.30;;;;;;5187157;23;20252;-83
2021/03/04 03:19:06;;;;;;;9.25;7.30;;;4.80;98.30;;;;;;5187299;23;20695;-84
2021/03/04 03:21:08;;;;;;;8.50;6.78;;;4.80;98.30;;;;;;5187241;23;20223;-83
2021/03/04 03:23:11;;;;;;;9.40;6.97;;;4.80;98.30;;;;;;5186683;23;20223;-83
2021/03/04 03:25:15;;;;;;;8.82;6.95;;;4.80;98.30;;;;;;5187874;23;20472;-82
2021/03/04 03:27:17;;;;;;;11.70;8.20;;;4.80;98.30;;;;;;5187322;23;20498;-82
2021/03/04 03:29:19;;;;;;;17.88;12.82;;;5.00;98.30;;;;;;5186286;23;20229;-82
2021/03/04 03:31:24;;;;;;;17.08;12.02;;;5.00;98.30;;;;;;5186936;23;20234;-83
2021/03/04 03:33:28;;;;;;;33.63;19.90;;;5.00;98.30;;;;;;5187932;23;20207;-83
2021/03/04 03:35:31;;;;;;;16.02;10.40;;;5.00;98.30;;;;;;5190711;23;20212;-83
2021/03/04 03:37:34;;;;;;;10.85;8.15;;;4.90;98.30;;;;;;5192410;23;20201;-81
2021/03/04 03:39:37;;;;;;;9.80;6.40;;;4.90;98.30;;;;;;5187572;23;20204;-81
2021/03/04 03:41:42;;;;;;;8.73;6.78;;;4.80;98.30;;;;;;5187688;23;20460;-81
2021/03/04 03:43:44;;;;;;;9.27;8.07;;;4.70;98.30;;;;;;5194121;23;20204;-83
2021/03/04 03:45:50;;;;;;;24.67;17.23;;;4.60;98.30;;;;;;5194147;23;20235;-86
2021/03/04 03:47:55;;;;;;;53.63;34.08;;;4.60;98.30;;;;;;5193534;23;20208;-83
2021/03/04 03:50:00;;;;;;;21.05;13.98;;;4.60;98.30;;;;;;5190182;23;20228;-84
2021/03/04 03:52:06;;;;;;;10.95;7.65;;;4.60;98.30;;;;;;5189063;23;20205;-83
2021/03/04 03:54:08;;;;;;;9.48;7.72;;;4.60;98.30;;;;;;5189152;23;20200;-83
2021/03/04 03:56:14;;;;;;;9.82;6.97;;;4.50;98.30;;;;;;5189519;23;20261;-83
2021/03/04 03:58:17;;;;;;;10.52;7.18;;;4.60;98.30;;;;;;5189219;23;20295;-85
2021/03/04 04:00:24;;;;;;;18.05;13.70;;;4.70;98.30;;;;;;5188999;23;20523;-83
2021/03/04 04:02:27;;;;;;;41.40;24.08;;;4.80;98.30;;;;;;5189790;23;20220;-85
2021/03/04 04:04:30;;;;;;;26.55;15.90;;;4.90;98.30;;;;;;5187751;23;20208;-83
2021/03/04 04:06:33;;;;;;;13.25;9.00;;;5.00;98.30;;;;;;5190020;23;20208;-84
2021/03/04 04:08:36;;;;;;;15.00;8.80;;;5.00;98.30;;;;;;5189695;23;20232;-84
2021/03/04 04:10:38;;;;;;;10.82;7.70;;;5.00;98.30;;;;;;5189350;23;20212;-84
2021/03/04 04:12:52;;;;;;;9.05;6.75;;;5.00;98.30;;;;;;5186054;23;20201;-83
2021/03/04 04:14:54;;;;;;;7.53;6.43;;;5.00;98.30;;;;;;5174030;23;20217;-82
2021/03/04 04:16:56;;;;;;;7.40;6.32;;;5.00;98.30;;;;;;5182713;23;20517;-84
2021/03/04 04:18:59;;;;;;;9.60;7.35;;;4.90;98.30;;;;;;5181147;23;20221;-82
2021/03/04 04:21:03;;;;;;;21.88;13.27;;;4.90;98.30;;;;;;5171577;23;20233;-84
2021/03/04 04:23:07;;;;;;;25.65;14.38;;;4.90;98.30;;;;;;5182711;23;20208;-82
2021/03/04 04:25:10;;;;;;;11.90;7.05;;;5.00;98.30;;;;;;5174102;23;20623;-81
2021/03/04 04:27:12;;;;;;;8.30;6.70;;;4.90;98.30;;;;;;5173597;23;20205;-82
2021/03/04 04:29:14;;;;;;;7.80;6.00;;;4.70;98.30;;;;;;5182742;23;20236;-82
2021/03/04 04:31:16;;;;;;;7.03;6.30;;;4.50;98.30;;;;;;5182281;23;20204;-83
2021/03/04 04:33:19;;;;;;;8.38;6.03;;;4.70;98.30;;;;;;5181428;23;20444;-84
2021/03/04 04:35:21;;;;;;;8.40;6.22;;;4.60;98.30;;;;;;5173315;23;20204;-84
2021/03/04 04:37:23;;;;;;;8.45;6.25;;;4.60;98.30;;;;;;5177191;23;20232;-83
2021/03/04 04:39:26;;;;;;;8.55;7.07;;;4.70;98.30;;;;;;5170057;23;20204;-83
2021/03/04 04:41:28;;;;;;;9.57;6.22;;;4.80;98.30;;;;;;5180794;23;20261;-83
2021/03/04 04:43:30;;;;;;;7.18;6.40;;;4.80;98.30;;;;;;5180893;23;20680;-84
2021/03/04 04:45:33;;;;;;;6.63;5.65;;;4.90;98.30;;;;;;5171600;23;20212;-84
2021/03/04 04:47:35;;;;;;;9.30;6.78;;;4.90;98.30;;;;;;5172080;23;20230;-84
2021/03/04 04:49:37;;;;;;;11.82;6.55;;;4.90;98.30;;;;;;5171459;23;20524;-83
2021/03/04 04:51:39;;;;;;;8.93;6.47;;;5.00;98.30;;;;;;5170848;23;20232;-83
2021/03/04 04:53:45;;;;;;;20.05;14.60;;;4.90;98.30;;;;;;5168703;23;20545;-84
2021/03/04 04:55:47;;;;;;;50.05;26.33;;;5.00;98.30;;;;;;5168657;23;20205;-84
2021/03/04 04:57:50;;;;;;;25.38;16.65;;;5.00;98.30;;;;;;5171356;23;20240;-83
2021/03/04 04:59:52;;;;;;;12.30;7.07;;;5.00;98.30;;;;;;5175834;23;20220;-84
2021/03/04 05:01:54;;;;;;;9.07;6.75;;;4.90;98.30;;;;;;5169148;23;20237;-83
2021/03/04 05:03:56;;;;;;;6.65;6.00;;;4.80;98.30;;;;;;5168590;23;20606;-84
2021/03/04 05:05:58;;;;;;;9.93;7.13;;;4.80;98.30;;;;;;5178144;23;20197;-84
2021/03/04 05:08:00;;;;;;;9.05;6.70;;;4.90;98.30;;;;;;5177819;23;20228;-83
2021/03/04 05:10:03;;;;;;;7.07;6.38;;;5.00;98.30;;;;;;5178804;23;20224;-85
2021/03/04 05:12:07;;;;;;;9.30;6.95;;;5.00;98.30;;;;;;5167951;23;20244;-84
2021/03/04 05:14:09;;;;;;;7.97;7.10;;;5.10;98.30;;;;;;5168255;23;20490;-83
2021/03/04 05:16:11;;;;;;;7.80;5.95;;;5.10;98.30;;;;;;5168747;23;20605;-83
2021/03/04 05:18:13;;;;;;;7.10;6.32;;;5.10;98.30;;;;;;5168172;23;20244;-83
2021/03/04 05:20:15;;;;;;;9.52;5.90;;;5.20;98.30;;;;;;5180038;23;20201;-83
2021/03/04 05:22:18;;;;;;;9.60;7.90;;;5.20;98.30;;;;;;5180428;23;20201;-84
2021/03/04 05:24:19;;;;;;;9.02;8.13;;;5.20;98.30;;;;;;5172797;23;20224;-82
2021/03/04 05:26:22;;;;;;;7.18;6.00;;;5.30;98.30;;;;;;5172708;23;20673;-83
2021/03/04 05:28:25;;;;;;;6.00;5.40;;;5.30;98.30;;;;;;5172778;23;20272;-83
2021/03/04 05:30:28;;;;;;;6.60;5.90;;;5.20;98.30;;;;;;5177154;23;20448;-84
2021/03/04 05:32:30;;;;;;;5.53;4.97;;;5.20;98.30;;;;;;5167037;23;20220;-83
2021/03/04 05:34:32;;;;;;;7.35;6.50;;;5.20;98.30;;;;;;5175975;23;20903;-82
2021/03/04 05:36:34;;;;;;;6.70;5.80;;;5.30;98.30;;;;;;5166740;23;20201;-82
2021/03/04 05:38:36;;;;;;;8.00;5.80;;;5.30;98.30;;;;;;5166612;23;20236;-83
2021/03/04 05:40:38;;;;;;;8.48;6.65;;;5.30;98.30;;;;;;5168800;23;20483;-83
2021/03/04 05:42:43;;;;;;;9.88;6.60;;;5.30;98.30;;;;;;5169178;23;20212;-83
2021/03/04 05:44:47;;;;;;;10.25;6.70;;;5.20;98.30;;;;;;5168699;23;20209;-84
2021/03/04 05:46:52;;;;;;;6.25;5.55;;;5.20;98.30;;;;;;5177549;23;20212;-84
2021/03/04 05:48:57;;;;;;;9.35;5.85;;;5.30;98.30;;;;;;5169850;23;20236;-83
2021/03/04 05:51:01;;;;;;;6.80;4.97;;;5.30;98.30;;;;;;5180138;23;20250;-82
2021/03/04 05:53:10;;;;;;;9.45;5.97;;;5.30;98.30;;;;;;5181177;23;20200;-82
2021/03/04 05:55:13;;;;;;;12.43;6.07;;;5.20;98.30;;;;;;5170466;23;20216;-84
2021/03/04 05:57:15;;;;;;;8.70;5.50;;;5.20;98.30;;;;;;5178565;23;20440;-84
2021/03/04 05:59:19;;;;;;;6.28;5.55;;;5.10;98.30;;;;;;5169701;23;20447;-84
2021/03/04 06:01:23;;;;;;;8.30;5.63;;;5.10;98.30;;;;;;5177209;23;20280;-84
2021/03/04 06:03:26;;;;;;;10.98;6.07;;;5.10;98.30;;;;;;5169485;23;20531;-84
2021/03/04 06:05:28;;;;;;;6.13;5.20;;;5.10;98.30;;;;;;5176593;23;20200;-83
2021/03/04 06:07:31;;;;;;;8.45;5.57;;;5.20;98.30;;;;;;5178347;23;20209;-83
2021/03/04 06:09:33;;;;;;;6.80;4.73;;;5.20;98.30;;;;;;5175958;23;20227;-83
2021/03/04 06:11:37;;;;;;;6.43;5.60;;;5.30;98.30;;;;;;5169083;23;20483;-83
2021/03/04 06:13:39;;;;;;;12.00;5.67;;;5.30;98.30;;;;;;5178418;23;20205;-82
2021/03/04 06:15:41;;;;;;;6.83;5.87;;;5.30;98.30;;;;;;5177599;23;20477;-83
2021/03/04 06:17:53;;;;;;;10.80;6.30;;;5.30;98.30;;;;;;5168731;23;20501;-84
2021/03/04 06:19:56;;;;;;;9.38;6.22;;;5.20;98.30;;;;;;5177300;23;20233;-83
2021/03/04 06:21:59;;;;;;;7.77;6.27;;;5.10;98.30;;;;;;5170022;23;20892;-82
2021/03/04 06:24:13;;;;;;;8.35;5.97;;;5.20;98.30;;;;;;5169580;23;20456;-83
2021/03/04 06:26:38;;;;;;;7.20;5.90;;;5.20;98.30;;;;;;5178282;23;20213;-81
2021/03/04 06:28:40;;;;;;;7.18;5.30;;;5.20;98.30;;;;;;5172097;23;20546;-84
2021/03/04 06:30:42;;;;;;;6.70;5.57;;;5.30;98.30;;;;;;5179139;23;20228;-83
2021/03/04 06:32:57;;;;;;;6.47;5.43;;;5.30;98.30;;;;;;5178279;23;20467;-83
2021/03/04 06:35:05;;;;;;;7.60;5.75;;;5.20;98.30;;;;;;5170712;23;20448;-82
2021/03/04 06:37:07;;;;;;;9.67;6.40;;;5.20;98.30;;;;;;5177573;23;20201;-82
2021/03/04 06:39:10;;;;;;;7.50;4.87;;;5.20;98.30;;;;;;5168595;23;20527;-83
2021/03/04 06:41:19;;;;;;;7.97;5.93;;;5.20;98.30;;;;;;5167394;23;21030;-83
2021/03/04 06:43:22;;;;;;;9.55;6.20;;;5.10;98.30;;;;;;5176153;23;20454;-83
2021/03/04 06:45:26;;;;;;;12.70;5.60;;;5.10;98.30;;;;;;5176295;23;20200;-83
2021/03/04 06:47:29;;;;;;;5.82;5.00;;;5.10;98.30;;;;;;5169429;23;20969;-82
2021/03/04 06:49:37;;;;;;;6.82;5.63;;;5.10;98.30;;;;;;5168938;23;20219;-83
2021/03/04 06:51:43;;;;;;;9.63;6.30;;;5.00;98.30;;;;;;5168130;23;20215;-83
2021/03/04 06:53:52;;;;;;;8.40;5.68;;;5.00;98.30;;;;;;5171130;23;21006;-82
2021/03/04 06:55:56;;;;;;;8.15;6.35;;;5.00;98.30;;;;;;5170605;23;20227;-83
2021/03/04 06:57:59;;;;;;;8.82;6.35;;;5.00;98.30;;;;;;5179521;23;20193;-83
2021/03/04 07:00:01;;;;;;;13.23;5.60;;;5.00;98.30;;;;;;5173672;23;20232;-82
2021/03/04 07:02:04;;;;;;;7.90;5.53;;;5.00;98.30;;;;;;5182423;23;20236;-82
2021/03/04 07:04:13;;;;;;;10.40;6.10;;;5.00;98.30;;;;;;5176124;23;20212;-83
2021/03/04 07:06:18;;;;;;;7.63;5.55;;;5.10;98.30;;;;;;5174018;23;20272;-83
2021/03/04 07:08:20;;;;;;;8.63;5.88;;;5.10;98.30;;;;;;5175714;23;20215;-82
2021/03/04 07:10:25;;;;;;;7.82;5.60;;;5.10;98.30;;;;;;5170586;23;20212;-82
2021/03/04 07:12:27;;;;;;;11.02;5.05;;;5.10;98.30;;;;;;5171142;23;20237;-83
2021/03/04 07:14:30;;;;;;;5.97;5.22;;;5.20;98.30;;;;;;5179489;23;20284;-83
2021/03/04 07:16:36;;;;;;;6.55;4.88;;;5.20;98.30;;;;;;5168455;23;20706;-82
2021/03/04 07:18:41;;;;;;;9.63;5.87;;;5.20;98.30;;;;;;5179095;23;20202;-83
2021/03/04 07:20:43;;;;;;;7.47;5.17;;;5.20;98.30;;;;;;5177692;23;20466;-83
2021/03/04 07:22:49;;;;;;;6.55;4.45;;;5.20;98.30;;;;;;5169554;23;20482;-83
2021/03/04 07:24:51;;;;;;;7.70;5.47;;;5.30;98.30;;;;;;5179028;23;21024;-83
2021/03/04 07:26:54;;;;;;;11.20;5.77;;;5.30;98.30;;;;;;5178441;23;20502;-83
2021/03/04 07:28:57;;;;;;;8.10;5.10;;;5.30;98.30;;;;;;5178972;23;20459;-82
2021/03/04 07:30:59;;;;;;;6.27;5.37;;;5.20;98.30;;;;;;5176875;23;20716;-85
2021/03/04 07:33:02;;;;;;;10.10;5.35;;;5.30;98.30;;;;;;5181083;23;20880;-82
2021/03/04 07:35:11;;;;;;;8.07;5.10;;;5.30;98.30;;;;;;5170258;23;20243;-82
2021/03/04 07:37:17;;;;;;;6.85;5.43;;;5.30;98.30;;;;;;5179721;23;20447;-82
2021/03/04 07:39:29;;;;;;;11.53;5.63;;;5.30;98.30;;;;;;5180386;23;20284;-83
2021/03/04 07:41:39;;;;;;;5.18;4.57;;;5.30;98.30;;;;;;5170106;23;20443;-83
2021/03/04 07:43:46;;;;;;;6.15;4.40;;;5.40;98.30;;;;;;5168308;23;20200;-84
2021/03/04 07:45:48;;;;;;;23.23;16.23;;;5.50;98.30;;;;;;5166882;23;20240;-83
2021/03/04 07:47:50;;;;;;;21.57;13.97;;;5.50;98.30;;;;;;5174663;23;20448;-84
2021/03/04 07:49:52;;;;;;;16.43;8.80;;;5.60;98.30;;;;;;5165987;23;20453;-84
2021/03/04 07:51:58;;;;;;;6.67;4.80;;;5.70;98.30;;;;;;5166470;23;20831;-83
2021/03/04 07:54:02;;;;;;;10.40;4.80;;;5.60;98.30;;;;;;5168441;23;20456;-85
2021/03/04 07:56:25;;;;;;;9.90;5.00;;;5.40;98.30;;;;;;5167421;23;20452;-86
2021/03/04 07:58:37;;;;;;;8.70;6.80;;;5.30;98.30;;;;;;5174832;23;20452;-85
2021/03/04 08:00:40;;;;;;;43.77;22.63;;;5.30;98.30;;;;;;5173004;23;20526;-85
2021/03/04 08:02:43;;;;;;;11.47;5.60;;;5.30;98.30;;;;;;5172922;23;20547;-85
2021/03/04 08:04:47;;;;;;;5.70;4.82;;;5.30;98.30;;;;;;5173053;23;20452;-85
2021/03/04 08:06:50;;;;;;;6.57;5.87;;;5.30;98.30;;;;;;5172877;23;20201;-85
2021/03/04 08:08:52;;;;;;;9.10;4.60;;;5.30;98.30;;;;;;5172285;23;20970;-85
2021/03/04 08:10:57;;;;;;;8.23;5.67;;;5.30;98.30;;;;;;5172334;23;20443;-84
2021/03/04 08:13:00;;;;;;;6.70;4.90;;;5.20;98.30;;;;;;5172763;23;20439;-85
2021/03/04 08:15:03;;;;;;;14.57;6.53;;;5.10;98.30;;;;;;5173656;23;20547;-85
2021/03/04 08:17:06;;;;;;;9.02;4.88;;;5.20;98.30;;;;;;5166864;23;20208;-85
2021/03/04 08:19:11;;;;;;;10.40;7.13;;;5.30;98.30;;;;;;5168692;23;20203;-85
2021/03/04 08:21:13;;;;;;;14.20;7.97;;;5.40;98.30;;;;;;5167475;23;20253;-85
2021/03/04 08:23:26;;;;;;;12.27;6.53;;;5.30;98.30;;;;;;5174070;23;20456;-85
2021/03/04 08:25:32;;;;;;;8.53;6.57;;;5.30;98.30;;;;;;5174303;23;20208;-85
2021/03/04 08:27:44;;;;;;;5.70;4.70;;;5.30;98.30;;;;;;5174540;23;20531;-85
2021/03/04 08:29:55;;;;;;;8.17;4.87;;;5.40;98.30;;;;;;5174942;23;21140;-85
2021/03/04 08:32:04;;;;;;;14.23;6.43;;;5.40;98.30;;;;;;5166330;23;20518;-85
2021/03/04 08:34:09;;;;;;;8.40;5.28;;;5.40;98.30;;;;;;5175134;23;20446;-85
2021/03/04 08:36:14;;;;;;;7.63;5.13;;;5.40;98.30;;;;;;5174370;23;20837;-85
2021/03/04 08:38:19;;;;;;;9.23;5.80;;;5.50;98.30;;;;;;5174180;23;20206;-85
2021/03/04 08:40:24;;;;;;;8.00;5.40;;;5.50;98.30;;;;;;5173697;23;20475;-85
2021/03/04 08:42:26;;;;;;;9.83;4.80;;;5.60;98.30;;;;;;5174633;23;20515;-85
2021/03/04 08:44:28;;;;;;;6.40;5.30;;;5.70;98.30;;;;;;5173758;23;20497;-85
2021/03/04 08:46:31;;;;;;;9.87;5.97;;;5.60;98.30;;;;;;5174082;23;20475;-85
2021/03/04 08:48:36;;;;;;;9.33;5.23;;;5.70;98.30;;;;;;5166006;23;20832;-85
2021/03/04 08:50:44;;;;;;;9.90;5.87;;;5.70;98.30;;;;;;5174017;23;21023;-85
2021/03/04 08:52:53;;;;;;;8.47;5.17;;;5.70;98.30;;;;;;5182982;23;20474;-85
2021/03/04 08:55:00;;;;;;;5.50;4.80;;;5.70;98.30;;;;;;5190333;22;20445;-85
2021/03/04 08:57:07;;;;;;;14.67;5.53;;;5.70;98.30;;;;;;5188519;23;20451;-85
2021/03/04 08:59:27;;;;;;;9.33;4.63;;;5.70;98.30;;;;;;5178912;23;20432;-85
2021/03/04 09:01:34;;;;;;;9.50;5.10;;;5.80;98.30;;;;;;5174100;23;20535;-85
2021/03/04 09:03:41;;;;;;;12.47;4.60;;;5.80;98.30;;;;;;5174610;23;20452;-85
2021/03/04 09:05:43;;;;;;;7.43;5.40;;;5.90;98.30;;;;;;5174506;23;20436;-85
2021/03/04 09:07:46;;;;;;;8.17;6.00;;;5.90;98.30;;;;;;5174503;23;20823;-84
2021/03/04 09:09:48;;;;;;;9.57;5.10;;;5.90;98.30;;;;;;5174016;23;20449;-85
2021/03/04 09:11:51;;;;;;;6.07;4.87;;;6.00;98.30;;;;;;5174277;23;20537;-85
2021/03/04 09:14:00;;;;;;;5.53;4.30;;;6.00;98.30;;;;;;5166490;23;20459;-85
2021/03/04 09:16:07;;;;;;;6.30;5.17;;;6.00;98.30;;;;;;5175276;23;20994;-85
2021/03/04 09:18:15;;;;;;;6.47;4.57;;;6.10;98.30;;;;;;5174681;23;20447;-85
2021/03/04 09:20:18;;;;;;;8.20;4.40;;;6.00;98.30;;;;;;5175106;23;20444;-85
2021/03/04 09:22:23;;;;;;;5.67;4.57;;;5.90;98.30;;;;;;5171993;23;20534;-86
2021/03/04 09:24:27;;;;;;;7.37;4.60;;;5.90;98.30;;;;;;5174793;23;20453;-85
2021/03/04 09:26:31;;;;;;;9.73;5.60;;;6.00;98.30;;;;;;5175188;23;20495;-86
2021/03/04 09:28:33;;;;;;;10.43;4.80;;;6.00;98.30;;;;;;5179211;23;20469;-85
2021/03/04 09:30:37;;;;;;;10.53;4.73;;;6.10;98.30;;;;;;5173754;23;20443;-85
2021/03/04 09:32:42;;;;;;;6.70;5.00;;;6.10;98.30;;;;;;5173863;23;20455;-85
2021/03/04 09:34:46;;;;;;;11.23;5.90;;;6.10;98.30;;;;;;5173936;23;20440;-86
2021/03/04 09:36:48;;;;;;;6.80;4.90;;;6.00;98.30;;;;;;5174087;23;20832;-85
2021/03/04 09:39:15;;;;;;;13.27;4.47;;;6.00;98.30;;;;;;5173479;23;20439;-86
2021/03/04 09:41:26;;;;;;;9.00;4.90;;;6.00;98.30;;;;;;5173831;23;20437;-85
2021/03/04 09:43:39;;;;;;;8.53;5.83;;;6.00;98.30;;;;;;5165685;23;20453;-85
2021/03/04 09:45:47;;;;;;;8.40;5.20;;;6.00;98.30;;;;;;5165548;23;20458;-85
2021/03/04 09:47:53;;;;;;;6.37;5.30;;;6.10;98.30;;;;;;5173557;23;20445;-85
2021/03/04 09:49:58;;;;;;;13.70;8.53;;;6.20;98.30;;;;;;5173187;23;20463;-85
2021/03/04 09:52:01;;;;;;;64.87;29.23;;;6.20;98.30;;;;;;5174180;23;20453;-86
2021/03/04 09:54:04;;;;;;;18.73;10.30;;;6.30;98.30;;;;;;5165642;23;20535;-85
2021/03/04 09:56:28;;;;;;;10.87;6.00;;;6.40;98.30;;;;;;5173416;23;20447;-85
2021/03/04 09:58:32;;;;;;;9.10;5.00;;;6.40;98.30;;;;;;5173757;23;20540;-85
2021/03/04 10:00:37;;;;;;;20.10;6.47;;;6.30;98.30;;;;;;5165324;23;20458;-85
2021/03/04 10:02:39;;;;;;;10.13;5.33;;;6.30;98.30;;;;;;5174218;23;20812;-85
2021/03/04 10:04:55;;;;;;;11.40;4.73;;;6.30;98.30;;;;;;5173493;23;20460;-85
2021/03/04 10:07:12;;;;;;;5.30;4.60;;;6.40;98.30;;;;;;5173835;23;21239;-85
2021/03/04 10:09:25;;;;;;;9.67;5.10;;;6.30;98.30;;;;;;5173545;23;21002;-85
2021/03/04 10:11:33;;;;;;;10.17;5.40;;;6.40;98.30;;;;;;5173531;23;20867;-85
2021/03/04 10:13:35;;;;;;;11.07;6.00;;;6.40;98.30;;;;;;5178551;23;21123;-84
2021/03/04 10:15:39;;;;;;;8.83;4.93;;;6.50;98.30;;;;;;5179120;23;20454;-85
2021/03/04 10:17:49;;;;;;;8.23;4.83;;;6.60;98.30;;;;;;5178632;23;20475;-84
2021/03/04 10:19:53;;;;;;;7.77;4.90;;;6.70;98.30;;;;;;5179695;23;20450;-84
2021/03/04 10:22:00;;;;;;;10.03;5.47;;;6.90;98.30;;;;;;5179612;23;20475;-84
2021/03/04 10:24:03;;;;;;;11.40;4.73;;;6.80;98.30;;;;;;5179714;23;20847;-84
2021/03/04 10:26:06;;;;;;;7.80;4.70;;;6.80;98.30;;;;;;5178725;23;20531;-84
2021/03/04 10:28:16;;;;;;;9.30;4.70;;;6.80;98.30;;;;;;5181903;23;20479;-84
2021/03/04 10:30:20;;;;;;;7.50;4.60;;;6.90;98.30;;;;;;5169313;23;20491;-84
2021/03/04 10:32:23;;;;;;;7.33;4.60;;;7.00;98.30;;;;;;5179134;23;20475;-84
2021/03/04 10:34:28;;;;;;;6.93;4.83;;;7.00;98.30;;;;;;5178852;23;20452;-84
2021/03/04 10:36:30;;;;;;;12.50;5.37;;;7.10;98.30;;;;;;5178125;23;20962;-84
2021/03/04 10:38:37;;;;;;;10.63;4.97;;;7.10;98.30;;;;;;5179765;23;20830;-84
2021/03/04 10:40:41;;;;;;;13.47;6.37;;;7.10;98.30;;;;;;5180961;23;20521;-84
2021/03/04 10:42:46;;;;;;;9.30;5.50;;;7.10;98.30;;;;;;5180971;23;20444;-84
2021/03/04 10:44:55;;;;;;;9.67;5.07;;;7.10;98.30;;;;;;5179425;23;20489;-84
2021/03/04 10:46:59;;;;;;;7.70;4.90;;;7.20;98.30;;;;;;5179758;23;20501;-84
2021/03/04 10:49:04;;;;;;;10.63;5.47;;;7.20;98.30;;;;;;5179651;23;20459;-84
2021/03/04 10:51:09;;;;;;;14.13;5.80;;;7.10;98.30;;;;;;5180716;23;20517;-84